createdAt,value
2022-10-05T00:04:54.260Z,7.80
2022-10-05T00:09:58.229Z,7.80
2022-10-05T00:15:01.563Z,7.80
2022-10-05T00:20:22.778Z,7.70
2022-10-05T00:25:24.750Z,7.60
2022-10-05T00:30:32.911Z,7.50
2022-10-05T00:35:35.835Z,7.50
2022-10-05T00:40:46.119Z,7.60
2022-10-05T00:46:14.188Z,7.50
2022-10-05T00:51:23.967Z,7.50
2022-10-05T00:56:48.429Z,7.40
2022-10-05T01:02:19.586Z,7.30
2022-10-05T01:08:02.222Z,7.30
2022-10-05T01:13:24.986Z,7.40
2022-10-05T01:18:43.896Z,7.20
2022-10-05T01:24:06.470Z,7.20
2022-10-05T01:29:32.426Z,7.30
2022-10-05T01:35:01.106Z,7.40
2022-10-05T01:40:22.363Z,7.40
2022-10-05T01:45:29.682Z,7.30
2022-10-05T01:50:42.156Z,7.30
2022-10-05T01:56:05.451Z,7.30
2022-10-05T02:01:16.335Z,7.30
2022-10-05T02:06:23.051Z,7.20
2022-10-05T02:11:25.230Z,7.20
2022-10-05T02:16:47.050Z,7.20
2022-10-05T02:21:54.467Z,7.10
2022-10-05T02:26:59.387Z,7.10
2022-10-05T02:32:07.666Z,7.00
2022-10-05T02:37:15.211Z,7.00
2022-10-05T02:42:28.799Z,7.00
2022-10-05T02:47:40.908Z,7.00
2022-10-05T02:53:00.085Z,6.90
2022-10-05T02:58:16.162Z,6.90
2022-10-05T03:03:28.604Z,7.00
2022-10-05T03:08:47.019Z,6.90
2022-10-05T03:14:18.731Z,6.80
2022-10-05T03:19:50.638Z,6.90
2022-10-05T03:24:55.610Z,6.80
2022-10-05T03:30:17.169Z,6.80
2022-10-05T03:35:53.123Z,6.90
2022-10-05T03:41:08.535Z,6.90
2022-10-05T03:46:34.848Z,7.00
2022-10-05T03:51:45.371Z,7.00
2022-10-05T03:56:51.532Z,6.80
2022-10-05T04:02:07.283Z,6.70
2022-10-05T04:07:20.891Z,6.70
2022-10-05T04:12:30.332Z,6.70
2022-10-05T04:17:40.191Z,6.70
2022-10-05T04:23:00.751Z,6.70
2022-10-05T04:28:20.493Z,6.60
2022-10-05T04:33:22.963Z,6.60
2022-10-05T04:38:37.371Z,6.70
2022-10-05T04:43:49.763Z,6.70
2022-10-05T04:49:27.055Z,6.60
2022-10-05T04:55:15.724Z,6.60
2022-10-05T05:00:26.657Z,6.60
2022-10-05T05:05:44.644Z,6.50
2022-10-05T05:11:21.182Z,6.50
2022-10-05T05:16:47.330Z,6.40
2022-10-05T05:22:07.575Z,6.40
2022-10-05T05:27:40.991Z,6.40
2022-10-05T05:33:10.591Z,6.40
2022-10-05T05:38:42.772Z,6.30
2022-10-05T05:44:13.512Z,6.30
2022-10-05T05:49:19.806Z,6.40
2022-10-05T05:54:28.252Z,6.40
2022-10-05T06:00:12.451Z,6.40
2022-10-05T06:05:46.362Z,6.40
2022-10-05T06:10:58.584Z,6.50
2022-10-05T06:16:13.459Z,6.60
2022-10-05T06:21:28.855Z,6.70
2022-10-05T06:26:36.515Z,7.00
2022-10-05T06:31:58.560Z,7.30
2022-10-05T06:37:12.375Z,7.60
2022-10-05T06:42:30.185Z,7.90
2022-10-05T06:48:02.966Z,8.30
2022-10-05T06:53:33.098Z,8.60
2022-10-05T06:59:29.412Z,8.80
2022-10-05T07:04:45.958Z,9.10
2022-10-05T07:10:19.826Z,9.40
2022-10-05T07:15:32.697Z,9.80
2022-10-05T07:21:10.504Z,10.20
2022-10-05T07:26:25.811Z,10.50
2022-10-05T07:31:54.522Z,10.80
2022-10-05T07:37:23.018Z,11.00
2022-10-05T07:42:33.042Z,11.30
2022-10-05T07:47:54.255Z,11.50
2022-10-05T07:53:01.669Z,11.70
2022-10-05T07:58:13.060Z,11.80
2022-10-05T08:03:57.832Z,11.90
2022-10-05T08:09:15.522Z,12.10
2022-10-05T08:14:41.116Z,12.40
2022-10-05T08:20:00.735Z,12.60
2022-10-05T08:25:05.797Z,12.70
2022-10-05T08:30:16.415Z,13.00
2022-10-05T08:35:25.068Z,13.20
2022-10-05T08:40:51.586Z,13.40
2022-10-05T08:46:17.574Z,13.60
2022-10-05T08:51:46.899Z,13.70
2022-10-05T08:57:04.324Z,13.80
2022-10-05T09:02:12.675Z,13.90
2022-10-05T09:07:40.538Z,14.10
2022-10-05T09:12:58.644Z,14.30
2022-10-05T09:18:28.470Z,14.50
2022-10-05T09:23:38.605Z,14.70
2022-10-05T09:29:18.383Z,15.00
2022-10-05T09:34:38.969Z,15.10
2022-10-05T09:40:19.273Z,15.20
2022-10-05T09:45:38.275Z,15.40
2022-10-05T09:51:00.323Z,15.50
2022-10-05T09:56:21.097Z,15.60
2022-10-05T10:01:59.690Z,15.70
2022-10-05T10:07:07.354Z,15.70
2022-10-05T10:12:28.010Z,15.70
2022-10-05T10:17:32.647Z,15.80
2022-10-05T10:22:50.120Z,16.00
2022-10-05T10:28:03.824Z,16.10
2022-10-05T10:33:32.289Z,16.10
2022-10-05T10:38:52.624Z,16.10
2022-10-05T10:44:31.251Z,16.30
2022-10-05T10:49:32.991Z,16.30
2022-10-05T10:54:58.855Z,16.50
2022-10-05T11:00:21.676Z,16.70
2022-10-05T11:05:52.949Z,16.80
2022-10-05T11:11:18.602Z,16.80
2022-10-05T11:16:32.438Z,16.80
2022-10-05T11:21:58.775Z,17.00
2022-10-05T11:27:33.912Z,17.00
2022-10-05T11:33:23.231Z,17.20
2022-10-05T11:38:58.287Z,17.30
2022-10-05T11:44:11.048Z,17.50
2022-10-05T11:49:35.638Z,17.70
2022-10-05T11:55:09.455Z,17.90
2022-10-05T12:00:43.880Z,18.00
2022-10-05T12:05:57.488Z,18.20
2022-10-05T12:11:36.477Z,18.30
2022-10-05T12:16:48.159Z,18.30
2022-10-05T12:21:56.587Z,18.10
2022-10-05T12:27:18.627Z,18.00
2022-10-05T12:32:35.964Z,18.00
2022-10-05T12:37:56.822Z,17.90
2022-10-05T12:43:16.415Z,17.80
2022-10-05T12:48:25.006Z,17.80
2022-10-05T12:53:51.852Z,17.80
2022-10-05T12:59:15.411Z,17.80
2022-10-05T13:04:31.080Z,17.80
2022-10-05T13:09:53.065Z,17.80
2022-10-05T13:15:28.608Z,17.80
2022-10-05T13:20:46.922Z,17.70
2022-10-05T13:26:06.280Z,17.60
2022-10-05T13:31:30.915Z,17.50
2022-10-05T13:36:53.391Z,17.50
2022-10-05T13:42:10.109Z,17.30
2022-10-05T13:47:35.651Z,17.20
2022-10-05T13:53:02.638Z,17.10
2022-10-05T13:58:37.203Z,17.00
2022-10-05T14:03:39.107Z,16.90
2022-10-05T14:08:54.537Z,16.80
2022-10-05T14:14:04.469Z,16.70
2022-10-05T14:19:06.265Z,16.60
2022-10-05T14:24:44.728Z,16.50
2022-10-05T14:29:52.588Z,16.40
2022-10-05T14:35:12.966Z,16.30
2022-10-05T14:40:44.080Z,16.20
2022-10-05T14:46:28.114Z,16.10
2022-10-05T14:51:33.587Z,16.00
2022-10-05T14:56:35.347Z,15.90
2022-10-05T15:01:44.959Z,15.80
2022-10-05T15:06:46.698Z,15.70
2022-10-05T15:11:55.000Z,15.60
2022-10-05T15:17:03.278Z,15.50
2022-10-05T15:22:28.232Z,15.40
2022-10-05T15:27:43.746Z,15.20
2022-10-05T15:33:12.898Z,15.10
2022-10-05T15:38:25.326Z,15.10
2022-10-05T15:43:39.555Z,14.90
2022-10-05T15:49:08.282Z,14.80
2022-10-05T15:54:41.646Z,14.70
2022-10-05T15:59:51.207Z,14.50
2022-10-05T16:04:55.724Z,14.30
2022-10-05T16:10:26.906Z,14.30
2022-10-05T16:15:39.305Z,14.10
2022-10-05T16:21:00.014Z,14.10
2022-10-05T16:26:14.977Z,13.90
2022-10-05T16:31:26.802Z,13.80
2022-10-05T16:36:47.170Z,13.70
2022-10-05T16:42:12.339Z,13.50
2022-10-05T16:47:37.624Z,13.30
2022-10-05T16:52:45.134Z,13.20
2022-10-05T16:57:55.572Z,13.10
2022-10-05T17:03:09.979Z,13.00
2022-10-05T17:08:41.179Z,12.70
2022-10-05T17:13:55.186Z,12.60
2022-10-05T17:19:06.123Z,12.40
2022-10-05T17:24:41.639Z,12.40
2022-10-05T17:30:20.916Z,12.40
2022-10-05T17:36:04.553Z,12.30
2022-10-05T17:41:14.928Z,12.30
2022-10-05T17:46:44.692Z,12.20
2022-10-05T17:52:04.975Z,12.20
2022-10-05T17:57:06.678Z,12.20
2022-10-05T18:02:21.833Z,12.20
2022-10-05T18:07:24.520Z,12.10
2022-10-05T18:12:39.138Z,12.00
2022-10-05T18:17:57.452Z,11.90
2022-10-05T18:23:09.573Z,11.90
2022-10-05T18:28:43.934Z,11.80
2022-10-05T18:33:51.610Z,11.70
2022-10-05T18:39:15.133Z,11.50
2022-10-05T18:44:39.897Z,11.40
2022-10-05T18:49:58.867Z,11.30
2022-10-05T18:55:15.516Z,11.30
2022-10-05T19:00:22.998Z,11.30
2022-10-05T19:05:47.392Z,11.20
2022-10-05T19:11:15.352Z,11.20
2022-10-05T19:16:29.828Z,11.30
2022-10-05T19:22:19.677Z,11.30
2022-10-05T19:27:27.464Z,11.30
2022-10-05T19:32:56.510Z,11.20
2022-10-05T19:38:55.514Z,11.10
2022-10-05T19:44:06.700Z,11.00
2022-10-05T19:49:10.742Z,11.00
2022-10-05T19:54:30.701Z,11.00
2022-10-05T19:59:32.440Z,11.00
2022-10-05T20:04:43.165Z,11.00
2022-10-05T20:09:59.256Z,11.00
2022-10-05T20:15:27.124Z,10.90
2022-10-05T20:20:34.814Z,10.90
2022-10-05T20:25:37.214Z,10.80
2022-10-05T20:30:38.983Z,10.80
2022-10-05T20:35:40.751Z,10.80
2022-10-05T20:40:42.477Z,10.80
2022-10-05T20:45:44.203Z,10.80
2022-10-05T20:50:47.296Z,10.80
2022-10-05T20:55:49.031Z,10.80
2022-10-05T21:01:09.577Z,10.80
2022-10-05T21:06:11.772Z,10.80
2022-10-05T21:11:14.391Z,10.80
2022-10-05T21:16:18.539Z,10.70
2022-10-05T21:21:20.392Z,10.80
2022-10-05T21:26:22.198Z,10.80
2022-10-05T21:31:25.435Z,10.70
2022-10-05T21:36:27.240Z,10.70
2022-10-05T21:41:28.983Z,10.70
2022-10-05T21:46:31.568Z,10.70
2022-10-05T21:51:35.287Z,10.70
2022-10-05T21:56:40.645Z,10.60
2022-10-05T22:01:42.385Z,10.60
2022-10-05T22:06:44.246Z,10.50
2022-10-05T22:11:49.220Z,10.50
2022-10-05T22:16:51.770Z,10.40
2022-10-05T22:21:53.570Z,10.40
2022-10-05T22:26:55.374Z,10.40
2022-10-05T22:31:57.505Z,10.40
2022-10-05T22:37:00.176Z,10.30
2022-10-05T22:42:01.964Z,10.20
2022-10-05T22:47:03.942Z,10.30
2022-10-05T22:52:05.714Z,10.30
2022-10-05T22:57:07.439Z,10.20
2022-10-05T23:02:09.525Z,10.20
2022-10-05T23:07:11.299Z,10.00
2022-10-05T23:12:13.618Z,10.00
2022-10-05T23:17:20.928Z,10.00
2022-10-05T23:22:24.773Z,10.00
2022-10-05T23:27:26.509Z,9.90
2022-10-05T23:32:28.236Z,9.80
2022-10-05T23:37:29.969Z,9.80
2022-10-05T23:42:31.676Z,9.80
2022-10-05T23:47:33.384Z,9.70
2022-10-05T23:52:36.123Z,9.80
2022-10-05T23:57:39.094Z,9.70
